Tiempo atmosférico en la estación meteorológica de Benabarre, Huesca (765 m.)



Fecha
DESCASC
Temp. máxima en grados centígrados (hora)
DESCASC
Temp. mínima en grados centígrados (hora)
DESCASC
Temp. media en grados centígrados
DESCASC
Racha de viento máxima en m/sg (hora)
DESCASC
Velocidad máxima media en intervalos de 10 minutos(hora)
DESCASC
Precipitaciones diarias en mm
DESCASC
Precipitaciones de 00:00 a 06:00 en mm
DESCASC
Precipitaciones de 06:00 a 12:00 en mm
DESCASC
Precipitaciones de 12:00 a 18:00 en mm
DESCASC
Precipitaciones de 18:00 a 24:00 en mm
DESCASC
20-05-2018 19.3 (13:30) 10.1 (04:40) 14.7 7.5 (14:40) 4.17 (14:40) 4.8 0 0 0.8 4
19-05-2018 20.5 (13:30) 9.7 (05:40) 15.1 8.61 (15:00) 5 (22:50) 13 0 0 10.8 2.2
18-05-2018 20.5 (16:40) 9.2 (00:00) 14.8 8.33 (21:00) 6.39 (21:00) 0.2 0 0 0 0.2
17-05-2018 21 (13:30) 11.7 (00:00) 16.3 11.67 (18:20) 6.67 (18:20) 5.8 0 0 1.8 4
16-05-2018 21.3 (16:40) 7.8 (00:00) 14.5 6.67 (14:50) 3.89 (23:30) 0 0 0 0 0
15-05-2018 20.3 (18:10) 5.4 (00:00) 12.8 8.06 (15:20) 4.72 (15:20) 0 0 0 0 0
14-05-2018 16.2 (17:10) 3.5 (00:00) 9.9 7.5 (14:50) 5.28 (00:30) 0 0 0 0 0
13-05-2018 14.8 (16:00) 3.6 (00:00) 9.2 13.33 (18:50) 8.61 (18:20) 0 0 0 0 0
12-05-2018 20.6 (14:20) 8.8 (00:00) 14.7 10 (16:00) 6.67 (16:00) 16.2 0 0 4.2 12
11-05-2018 22.1 (17:00) 7 (06:50) 14.6 6.94 (17:30) 4.17 (16:20) 0 0 0 0 0
10-05-2018 19.1 (17:50) 10.2 (00:00) 14.7 8.89 (16:30) 4.72 (22:10) 0 0 0 0 0
09-05-2018 20.8 (17:30) 8.6 (00:00) 14.7 9.72 (15:40) 4.44 (15:40) 0 0 0 0 0
08-05-2018 20.6 (19:00) 11.2 (00:00) 15.9 7.78 (02:10) 5.28 (07:00) 1.6 1.2 0 0.4 0
07-05-2018 21.1 (14:00) 11.9 (00:00) 16.5 9.72 (15:30) 5.83 (22:40) 5.4 0 0 0.8 4.6
06-05-2018 21 (18:00) 8 (00:00) 14.5 5.28 (12:20) 3.06 (03:50) 1 0 0 1 0
05-05-2018 18.4 (12:50) 6.8 (00:00) 12.6 7.78 (14:10) 5 (14:30) 0.8 0 0 0.8 0
04-05-2018 19.1 (16:10) 6.2 (00:00) 12.7 6.94 (12:00) 4.44 (12:30) 0 0 0 0 0
03-05-2018 17.9 (15:20) 5.8 (00:00) 11.8 8.33 (14:40) 5.28 (19:00) 0 0 0 0 0
02-05-2018 16.2 (17:10) 0.7 (00:00) 8.5 11.11 (16:20) 6.67 (16:40) 0 0 0 0 0
01-05-2018 12.5 (13:10) 0.9 (05:00) 6.7 8.89 (15:50) 6.39 (15:50) 1 0 0 1 0
30-04-2018 12 (16:10) 2.6 (00:00) 7.3 7.5 (19:00) 4.72 (17:40) 0.2 0.2 0 0 0
29-04-2018 12.6 (00:00) 4.5 (00:00) 8.6 13.06 (04:20) 8.61 (04:20) 27.8 17.6 3 7.2 0
28-04-2018 19.3 (16:40) 11.9 (00:00) 15.6 13.89 (19:00) 9.17 (17:50) 0 0 0 0 0
27-04-2018 23.4 (17:40) 9.3 (00:00) 16.3 9.72 (21:40) 5 (21:40) 0.4 0 0 0 0.4
26-04-2018 21.4 (18:50) 9.2 (00:00) 15.3 6.94 (16:10) 4.17 (16:00) 0 0 0 0 0
25-04-2018 26 (14:30) 10.3 (00:00) 18.2 7.78 (20:40) 4.72 (20:40) 0 0 0 0 0
24-04-2018 24.2 (15:40) 7.9 (00:00) 16.1 6.11 (12:30) 3.61 (12:20) 0 0 0 0 0
23-04-2018 16.5 (11:30) 10.3 (00:00) 13.4 7.78 (14:10) 5.83 (16:30) 0.2 0 0 0.2 0
22-04-2018 22.5 (15:20) 9.2 (00:00) 15.8 9.72 (15:50) 5.83 (15:50) 0 0 0 0 0

Gráficas

Temp. máximas Temp. mínimas Temp. medias Precipitaciones Rachas de viento máximas Velocidades máximas media en intervalos de 10 minutos

Datos horarios

Fecha y hora oficial Temperatura (ºC) Velocidad del viento (km/h) Dirección del viento Racha (km/h) Dirección de racha Precipitación (mm) Presión (hPa) Tendencia (hPa) Humedad (%)
2018-05-21 23:00:00 12.4 7 Este 13 Sur 0.4 -- -- 94
2018-05-21 22:00:00 12.8 9 Sur 28 Sur 1 -- -- 90
2018-05-21 21:00:00 13.4 13 Oeste 29 Oeste 0.8 -- -- 84
2018-05-21 20:00:00 14.2 5 Este 23 Este 0 -- -- 78
2018-05-21 19:00:00 14.5 19 Este 36 Este 0.8 -- -- 79
2018-05-21 18:00:00 19.1 10 Sudoeste 19 Sudeste 0 -- -- 66
2018-05-21 17:00:00 20.9 10 Sudeste 21 Sudoeste 0 -- -- 58
2018-05-21 16:00:00 19.5 6 Oeste 15 Noroeste 0 -- -- 55
2018-05-21 15:00:00 17.6 12 Oeste 21 Oeste 0 -- -- 66
2018-05-21 14:00:00 18.9 12 Oeste 19 Sudoeste 0 -- -- 59
2018-05-21 13:00:00 19.4 8 Sur 20 Sudeste 0 -- -- 62
2018-05-21 12:00:00 18 11 Sudeste 18 Este 0 -- -- 68
2018-05-21 11:00:00 16.2 6 Sudeste 11 Sudeste 0 -- -- 72
2018-05-21 10:00:00 16.7 7 Este 13 Este 0 -- -- 74
2018-05-21 09:00:00 14.7 7 Este 10 Este 0 -- -- 83
2018-05-21 08:00:00 11.2 2 Este 10 Norte 0 -- -- 95
2018-05-21 07:00:00 9.6 8 Norte 9 Noroeste 0 -- -- 94
2018-05-21 06:00:00 10.9 4 Noroeste 8 Norte 0 -- -- 91
2018-05-21 05:00:00 10.6 4 Noroeste 7 Noroeste 0 -- -- 94
2018-05-21 04:00:00 10.5 5 Norte 8 Norte 0 -- -- 93
2018-05-21 03:00:00 10.9 4 Noroeste 8 Norte 0 -- -- 94
2018-05-21 02:00:00 10.8 0 Calma 11 Norte 0 -- -- 94
2018-05-21 01:00:00 11 6 Norte 9 Norte 0 -- -- 94
2018-05-21 00:00:00 11.2 5 Norte 10 Noroeste 0 -- -- 92
2018-05-20 23:00:00 11.2 8 Norte 13 Nordeste 0 -- -- 92
2018-05-20 22:00:00 11.8 9 Nordeste 18 Este 0 -- -- 88
2018-05-20 21:00:00 12.3 9 Nordeste 15 Nordeste 0 -- -- 89
2018-05-20 20:00:00 12.5 11 Nordeste 14 Nordeste 2.4 -- -- 91
2018-05-20 19:00:00 12.4 4 Este 14 Sudeste 1.6 -- -- 92
2018-05-20 18:00:00 12.4 8 Sudeste 25 Sur 0.6 -- -- 87
2018-05-20 17:00:00 15.8 11 Sur 15 Sur 0 -- -- 78
2018-05-20 16:00:00 16.9 3 Oeste 12 Oeste 0.2 -- -- 71
2018-05-20 15:00:00 15.1 9 Oeste 27 Sudoeste 0 -- -- 74
2018-05-20 14:00:00 19.3 7 Sur 17 Sudeste 0 -- -- 60
2018-05-20 13:00:00 18.8 7 Sudeste 16 Este 0 -- -- 63
2018-05-20 12:00:00 15.8 7 Sudeste 13 Sudeste 0 -- -- 76
2018-05-20 11:00:00 15.2 8 Este 10 Este 0 -- -- 83
2018-05-20 10:00:00 14.6 3 Sur 7 Oeste 0 -- -- 83
2018-05-20 09:00:00 13.7 2 Oeste 8 Oeste 0 -- -- 85
2018-05-20 08:00:00 11.9 4 Oeste 8 Oeste 0 -- -- 91
2018-05-20 07:00:00 11.6 9 Nordeste 14 Nordeste 0 -- -- 89
2018-05-20 06:00:00 10.8 6 Norte 10 Norte 0 -- -- 93
2018-05-20 05:00:00 10.2 11 Norte 14 Norte 0 -- -- 94
2018-05-20 04:00:00 10.5 6 Norte 12 Norte 0 -- -- 93
2018-05-20 03:00:00 11 9 Norte 13 Norte 0 -- -- 92
2018-05-20 02:00:00 11.2 7 Norte 14 Norte 0 -- -- 93
2018-05-20 01:00:00 12.1 5 Noroeste 12 Noroeste 0 -- -- 93
2018-05-20 00:00:00 12.8 3 Norte 18 Nordeste 0 -- -- 87
2018-05-19 23:00:00 12.8 13 Nordeste 22 Este 0 -- -- 86
2018-05-19 22:00:00 12 8 Este 18 Nordeste 0 -- -- 93
2018-05-19 21:00:00 12.3 8 Nordeste 15 Nordeste 0.6 -- -- 89
2018-05-19 20:00:00 13 8 Este 12 Este 1.4 -- -- 92
2018-05-19 19:00:00 13.8 9 Noroeste 21 Oeste 0.2 -- -- 82
2018-05-19 18:00:00 14.5 3 Nordeste 9 Norte 0 -- -- 81
2018-05-19 17:00:00 13.4 4 Nordeste 22 Sudeste 0.2 -- -- 83
2018-05-19 16:00:00 13.4 15 Sudeste 29 Sudoeste 5 -- -- 85
2018-05-19 15:00:00 17.5 10 Oeste 31 Sudoeste 5.6 -- -- 68
2018-05-19 14:00:00 19.2 9 Sudoeste 23 Oeste 0 -- -- 62
2018-05-19 13:00:00 20.1 12 Sudoeste 24 Sudoeste 0 -- -- 59
2018-05-19 12:00:00 18.9 3 Noroeste 15 Oeste 0 -- -- 59
2018-05-19 11:00:00 17.6 9 Oeste 14 Oeste 0 -- -- 60
2018-05-19 10:00:00 16.2 6 Sudoeste 9 Sudoeste 0 -- -- 72
2018-05-19 09:00:00 14.3 5 Oeste 9 Noroeste 0 -- -- 79
2018-05-19 08:00:00 11.6 4 Noroeste 11 Noroeste 0 -- -- 90
2018-05-19 07:00:00 10.2 7 Noroeste 10 Norte 0 -- -- 93
2018-05-19 06:00:00 9.9 7 Norte 12 Noroeste 0 -- -- 93
2018-05-19 05:00:00 10 8 Norte 9 Norte 0 -- -- 91
2018-05-19 04:00:00 11.4 4 Norte 12 Noroeste 0 -- -- 90
2018-05-19 03:00:00 11.9 8 Noroeste 15 Nordeste 0 -- -- 88
2018-05-19 02:00:00 13 11 Nordeste 17 Nordeste 0 -- -- 82
2018-05-19 01:00:00 12.8 12 Nordeste 17 Nordeste 0 -- -- 81
2018-05-19 00:00:00 11.1 0 Calma 8 Norte 0 -- -- 90
2018-05-18 23:00:00 10.9 7 Norte 12 Norte 0 -- -- 90
2018-05-18 22:00:00 12.2 0 Calma 20 Norte 0 -- -- 83
2018-05-18 21:00:00 13.1 23 Norte 30 Norte 0 -- -- 79
2018-05-18 20:00:00 14.3 12 Noroeste 22 Noroeste 0.2 -- -- 73
2018-05-18 19:00:00 16.5 7 Norte 14 Nordeste 0 -- -- 64
2018-05-18 18:00:00 18.6 6 Sur 19 Sur 0 -- -- 62
2018-05-18 17:00:00 20.5 6 Sudoeste 15 Sur 0 -- -- 54
2018-05-18 16:00:00 18.6 8 Sudoeste 24 Sur 0 -- -- 63
2018-05-18 15:00:00 18.5 10 Sur 21 Sur 0 -- -- 62
2018-05-18 14:00:00 18.6 5 Oeste 20 Sur 0 -- -- 60
2018-05-18 13:00:00 17.1 8 Sudoeste 19 Sudoeste 0 -- -- 69
2018-05-18 12:00:00 18.2 9 Sudeste 17 Este 0 -- -- 67
2018-05-18 11:00:00 16.4 10 Sudeste 16 Sur 0 -- -- 68
2018-05-18 10:00:00 15.1 6 Sudeste 10 Este 0 -- -- 81
2018-05-18 09:00:00 14.8 5 Este 9 Este 0 -- -- 85
2018-05-18 08:00:00 11.2 0 Calma 7 Norte 0 -- -- 94
2018-05-18 07:00:00 9.3 5 Norte 10 Norte 0 -- -- 95
2018-05-18 06:00:00 9.8 7 Norte 12 Oeste 0 -- -- 94
2018-05-18 05:00:00 11.1 6 Norte 11 Norte 0 -- -- 92
2018-05-18 04:00:00 10.5 9 Norte 13 Norte 0 -- -- 95
2018-05-18 03:00:00 10.2 6 Norte 9 Norte 0 -- -- 95
2018-05-18 02:00:00 10.1 4 Norte 8 Norte 0 -- -- 94
2018-05-18 01:00:00 10.5 5 Norte 8 Este 0 -- -- 92
2018-05-18 00:00:00 11.7 9 Este 15 Este 0 -- -- 90
2018-05-17 23:00:00 11.8 6 Nordeste 22 Este 0 -- -- 93
2018-05-17 22:00:00 12.1 15 Este 23 Este 0 -- -- 93
2018-05-17 21:00:00 12.5 13 Sudeste 27 Este 0.2 -- -- 92
2018-05-17 20:00:00 12.3 15 Este 21 Este 0.8 -- -- 92
2018-05-17 19:00:00 13.5 10 Este 42 Norte 3 -- -- 79
2018-05-17 18:00:00 18.8 4 Sur 14 Sur 0 -- -- 66
2018-05-17 17:00:00 19 7 Sur 13 Sudoeste 0.2 -- -- 68
2018-05-17 16:00:00 17.5 15 Oeste 26 Oeste 1.6 -- -- 70
2018-05-17 15:00:00 19.8 12 Sur 17 Sudoeste 0 -- -- 60
2018-05-17 14:00:00 20.3 12 Sur 19 Sur 0 -- -- 57
2018-05-17 13:00:00 20.2 10 Sur 18 Sudeste 0 -- -- 54
2018-05-17 12:00:00 19.6 6 Sur 18 Sudeste 0 -- -- 56
2018-05-17 11:00:00 17.9 6 Sudeste 16 Este 0 -- -- 58
2018-05-17 10:00:00 16 12 Este 19 Este 0 -- -- 58
2018-05-17 09:00:00 15.9 8 Este 15 Este 0 -- -- 57
2018-05-17 08:00:00 12.9 12 Nordeste 15 Nordeste 0 -- -- 65
2018-05-17 07:00:00 12.6 12 Nordeste 16 Este 0 -- -- 66
2018-05-17 06:00:00 12.5 10 Este 14 Este 0 -- -- 68
2018-05-17 05:00:00 12.6 5 Este 18 Este 0 -- -- 67
2018-05-17 04:00:00 13.3 11 Nordeste 16 Nordeste 0 -- -- 67
2018-05-17 03:00:00 14.3 10 Este 20 Este 0 -- -- 65
2018-05-17 02:00:00 15.2 15 Nordeste 21 Este 0 -- -- 61
2018-05-17 01:00:00 15.6 13 Nordeste 18 Nordeste 0 -- -- 70
2018-05-17 00:00:00 15.6 14 Nordeste 20 Nordeste 0 -- -- 71
2018-05-16 23:00:00 15.4 8 Nordeste 13 Nordeste 0 -- -- 72
2018-05-16 22:00:00 16.9 4 Este 9 Sudoeste 0 -- -- 64
2018-05-16 21:00:00 18.5 4 Sudoeste 18 Sudoeste 0 -- -- 58
2018-05-16 20:00:00 19.8 6 Sudoeste 15 Oeste 0 -- -- 52
2018-05-16 19:00:00 20 9 Oeste 19 Oeste 0 -- -- 51
2018-05-16 18:00:00 21 10 Sudoeste 22 Sudoeste 0 -- -- 49
2018-05-16 17:00:00 20.9 10 Oeste 24 Sudoeste 0 -- -- 49
2018-05-16 16:00:00 20.2 12 Oeste 23 Sudoeste 0 -- -- 48
2018-05-16 15:00:00 19 12 Oeste 24 Oeste 0 -- -- 52
2018-05-16 14:00:00 19.2 13 Oeste 23 Oeste 0 -- -- 57
2018-05-16 13:00:00 18.7 13 Oeste 20 Oeste 0 -- -- 58
2018-05-16 12:00:00 17.9 9 Oeste 17 Oeste 0 -- -- 55
2018-05-16 11:00:00 16.7 5 Oeste 10 Oeste 0 -- -- 58
2018-05-16 10:00:00 14.9 6 Oeste 10 Oeste 0 -- -- 66
2018-05-16 09:00:00 14.1 3 Sur 7 Este 0 -- -- 67
2018-05-16 08:00:00 10.3 0 Calma 8 Norte 0 -- -- 80
2018-05-16 07:00:00 8.1 3 Nordeste 17 Norte 0 -- -- 82
2018-05-16 06:00:00 8.2 10 Norte 17 Norte 0 -- -- 82
2018-05-16 05:00:00 8.4 12 Nordeste 15 Nordeste 0 -- -- 82
2018-05-16 04:00:00 9.2 12 Norte 15 Norte 0 -- -- 79
2018-05-16 03:00:00 11.7 7 Nordeste 17 Este 0 -- -- 69
2018-05-16 02:00:00 12.6 4 Este 18 Este 0 -- -- 66
2018-05-16 01:00:00 12.7 10 Nordeste 16 Este 0 -- -- 63
2018-05-16 00:00:00 13.2 13 Este 26 Nordeste 0 -- -- 61
2018-05-15 23:00:00 13.5 7 Nordeste 21 Nordeste 0 -- -- 61
2018-05-15 22:00:00 14.2 10 Este 20 Este 0 -- -- 60
2018-05-15 21:00:00 16.9 9 Este 18 Este 0 -- -- 53
2018-05-15 20:00:00 17.8 7 Este 15 Este 0 -- -- 52
2018-05-15 19:00:00 18.8 6 Sudeste 26 Oeste 0 -- -- 49
2018-05-15 18:00:00 19.8 17 Oeste 26 Oeste 0 -- -- 48
2018-05-15 17:00:00 19.4 12 Oeste 27 Sudoeste 0 -- -- 49
2018-05-15 16:00:00 19.5 11 Oeste 29 Oeste 0 -- -- 49
2018-05-15 15:00:00 18.5 15 Oeste 28 Oeste 0 -- -- 54
2018-05-15 14:00:00 17.5 15 Oeste 25 Oeste 0 -- -- 50
2018-05-15 13:00:00 16.4 13 Oeste 23 Oeste 0 -- -- 48
2018-05-15 12:00:00 15.4 11 Noroeste 22 Oeste 0 -- -- 51
2018-05-15 11:00:00 13.5 12 Oeste 18 Oeste 0 -- -- 55
2018-05-15 10:00:00 12 6 Noroeste 12 Noroeste 0 -- -- 54
2018-05-15 09:00:00 9.5 5 Oeste 13 Este 0 -- -- 70
2018-05-15 08:00:00 6.3 4 Norte 11 Noroeste 0 -- -- 78
2018-05-15 07:00:00 5.7 5 Norte 13 Norte 0 -- -- 77
2018-05-15 06:00:00 6.3 9 Norte 19 Oeste 0 -- -- 75
2018-05-15 05:00:00 5.9 7 Noroeste 17 Noroeste 0 -- -- 78
2018-05-15 04:00:00 6 9 Noroeste 17 Oeste 0 -- -- 77
2018-05-15 03:00:00 6.8 6 Noroeste 11 Noroeste 0 -- -- 74
2018-05-15 02:00:00 6.2 7 Norte 12 Norte 0 -- -- 74
2018-05-15 01:00:00 6.1 8 Norte 13 Norte 0 -- -- 77
2018-05-15 00:00:00 7.1 9 Noroeste 16 Nordeste 0 -- -- 70
2018-05-14 23:00:00 7 11 Nordeste 13 Nordeste 0 -- -- 75
2018-05-14 22:00:00 9.6 11 Nordeste 14 Nordeste 0 -- -- 67
2018-05-14 21:00:00 12.2 6 Este 12 Este 0 -- -- 63
2018-05-14 20:00:00 13.5 8 Este 22 Sudeste 0 -- -- 55
2018-05-14 19:00:00 14.7 10 Sudeste 20 Sudeste 0 -- -- 50
2018-05-14 18:00:00 15.3 9 Oeste 24 Oeste 0 -- -- 42
2018-05-14 17:00:00 16.1 7 Oeste 26 Oeste 0 -- -- 38
2018-05-14 16:00:00 15.4 14 Oeste 24 Oeste 0 -- -- 40
2018-05-14 15:00:00 13.1 12 Oeste 27 Oeste 0 -- -- 47
2018-05-14 14:00:00 12.2 11 Oeste 20 Oeste 0 -- -- 47
2018-05-14 13:00:00 11.9 12 Oeste 20 Oeste 0 -- -- 48
2018-05-14 12:00:00 11.6 10 Oeste 22 Oeste 0 -- -- 49
2018-05-14 11:00:00 10.6 15 Oeste 25 Oeste 0 -- -- 55
2018-05-14 10:00:00 8.8 13 Oeste 21 Oeste 0 -- -- 61
2018-05-14 09:00:00 7.1 15 Oeste 24 Oeste 0 -- -- 71
2018-05-14 08:00:00 5 14 Noroeste 20 Noroeste 0 -- -- 79
2018-05-14 07:00:00 3.9 9 Noroeste 23 Oeste 0 -- -- 81
2018-05-14 06:00:00 4 16 Noroeste 20 Noroeste 0 -- -- 83
2018-05-14 05:00:00 3.8 11 Noroeste 18 Noroeste 0 -- -- 80
2018-05-14 04:00:00 3.8 14 Noroeste 23 Noroeste 0 -- -- 79
2018-05-14 03:00:00 4.8 15 Noroeste 20 Noroeste 0 -- -- 75
2018-05-14 02:00:00 5 17 Noroeste 24 Noroeste 0 -- -- 74
2018-05-14 01:00:00 6.1 19 Noroeste 25 Noroeste 0 -- -- 74
2018-05-11 20:00:00 -- -- -- -- -- -- -- -- --
2018-05-11 19:00:00 21.1 12 Noroeste 22 Oeste 0 -- -- 50
2018-05-11 18:00:00 21.9 14 Oeste 25 Noroeste 0 -- -- 47
2018-05-11 17:00:00 22.1 10 Sudoeste 24 Oeste 0 -- -- 44
2018-05-11 16:00:00 21.6 9 Oeste 22 Oeste 0 -- -- 47
2018-05-11 15:00:00 20.9 11 Oeste 22 Oeste 0 -- -- 51
2018-05-11 14:00:00 19.9 9 Oeste 20 Oeste 0 -- -- 47
2018-05-11 13:00:00 18.8 10 Oeste 17 Oeste 0 -- -- 51
2018-05-11 12:00:00 17.8 9 Este 21 Sur 0 -- -- 59
2018-05-11 11:00:00 16.6 6 Sur 12 Sur 0 -- -- 67
2018-05-11 10:00:00 15.4 6 Sudeste 12 Este 0 -- -- 73
2018-05-11 09:00:00 13.4 4 Este 8 Este 0 -- -- 84
2018-05-11 08:00:00 8.7 3 Norte 8 Norte 0 -- -- 95
2018-05-11 07:00:00 7 4 Norte 9 Norte 0 -- -- 95
2018-05-11 06:00:00 7.6 2 Norte 8 Norte 0 -- -- 96
2018-05-11 05:00:00 8.1 4 Norte 7 Norte 0 -- -- 95
2018-05-11 04:00:00 9.1 3 Este 8 Nordeste 0 -- -- 93
2018-05-11 03:00:00 9.5 5 Norte 8 Norte 0 -- -- 90
2018-05-11 02:00:00 11.7 7 Sudeste 12 Sudeste 0 -- -- 84
2018-05-11 01:00:00 13 6 Este 16 Nordeste 0 -- -- 77
2018-05-11 00:00:00 13.4 13 Nordeste 21 Nordeste 0 -- -- 74
2018-05-10 23:00:00 13.3 15 Nordeste 22 Este 0 -- -- 76
2018-05-10 22:00:00 13.8 13 Nordeste 22 Este 0 -- -- 75
2018-05-10 21:00:00 14.9 13 Este 20 Este 0 -- -- 71
2018-05-10 20:00:00 16.3 14 Este 24 Este 0 -- -- 66
2018-05-10 19:00:00 18.4 9 Sur 18 Sur 0 -- -- 56
2018-05-10 18:00:00 18.5 9 Sur 24 Sudoeste 0 -- -- 57
2018-05-10 17:00:00 18.7 13 Sur 32 Sudoeste 0 -- -- 60
2018-05-10 16:00:00 18.9 14 Sur 30 Sudoeste 0 -- -- 64
2018-05-10 15:00:00 17.7 14 Sur 23 Sur 0 -- -- 65
2018-05-10 14:00:00 17 9 Sur 17 Sudeste 0 -- -- 71
2018-05-10 13:00:00 15.9 8 Oeste 18 Noroeste 0 -- -- 77
2018-05-10 12:00:00 14.8 10 Oeste 17 Oeste 0 -- -- 76
2018-05-10 11:00:00 15.5 9 Oeste 14 Oeste 0 -- -- 75
2018-05-10 10:00:00 15.4 3 Oeste 9 Oeste 0 -- -- 73
2018-05-10 09:00:00 13.6 5 Este 9 Este 0 -- -- 93
2018-05-10 08:00:00 11.4 0 Calma 9 Norte 0 -- -- 97
2018-05-10 07:00:00 10.3 6 Norte 10 Norte 0 -- -- 96
2018-05-10 06:00:00 10.7 0 Calma 12 Norte 0 -- -- 92
2018-05-10 05:00:00 11.3 9 Norte 12 Norte 0 -- -- 92
2018-05-10 04:00:00 12.4 7 Norte 9 Norte 0 -- -- 93
2018-05-10 03:00:00 12.7 8 Este 9 Este 0 -- -- 93
2018-05-10 02:00:00 13.2 4 Nordeste 15 Nordeste 0 -- -- 89
2018-05-10 01:00:00 14.1 12 Nordeste 14 Nordeste 0 -- -- 87
2018-05-10 00:00:00 14.5 8 Este 12 Este 0 -- -- 87
2018-05-09 23:00:00 15.1 6 Este 16 Nordeste 0 -- -- 84
2018-05-09 22:00:00 15.7 6 Nordeste 13 Nordeste 0 -- -- 83
2018-05-09 21:00:00 16.6 6 Sudeste 17 Este 0 -- -- 78
2018-05-09 20:00:00 18 8 Este 17 Sudoeste 0 -- -- 67
2018-05-09 19:00:00 20.1 8 Oeste 23 Oeste 0 -- -- 56
2018-05-09 18:00:00 20.1 12 Sudoeste 24 Oeste 0 -- -- 55
2018-05-09 17:00:00 20.1 14 Oeste 28 Oeste 0 -- -- 60
2018-05-09 16:00:00 19.5 15 Oeste 35 Oeste 0 -- -- 66
2018-05-09 15:00:00 18.7 14 Oeste 21 Oeste 0 -- -- 66
2018-05-09 14:00:00 18.1 7 Oeste 19 Oeste 0 -- -- 74
2018-05-09 13:00:00 16.8 6 Este 15 Sudoeste 0 -- -- 82
2018-05-09 12:00:00 16.9 8 Sudeste 15 Este 0 -- -- 81
2018-05-09 11:00:00 13.5 10 Este 15 Este 0 -- -- 91
2018-05-09 10:00:00 11.5 7 Sudeste 13 Sudeste 0 -- -- 97
2018-05-09 09:00:00 11.1 2 Sur 9 Este 0 -- -- 98
2018-05-09 08:00:00 9.7 0 Calma 9 Norte 0 -- -- 97
2018-05-09 07:00:00 8.7 3 Norte 7 Norte 0 -- -- 96
2018-05-09 06:00:00 9.9 4 Nordeste 14 Este 0 -- -- 96
2018-05-09 05:00:00 10 6 Este 10 Norte 0 -- -- 94
2018-05-09 04:00:00 10.8 8 Norte 13 Noroeste 0 -- -- 92
2018-05-09 03:00:00 11.7 2 Este 13 Norte 0 -- -- 93
2018-05-09 02:00:00 11.7 6 Norte 10 Nordeste 0 -- -- 93
2018-05-09 01:00:00 13.3 4 Este 14 Sudeste 0 -- -- 92
2018-05-09 00:00:00 13.9 8 Norte 12 Norte 0 -- -- 90
2018-05-08 23:00:00 13.7 3 Norte 8 Norte 0 -- -- 89
2018-05-08 22:00:00 14.5 3 Norte 10 Norte 0 -- -- 88
2018-05-08 21:00:00 16.8 3 Nordeste 10 Este 0 -- -- 80
2018-05-08 20:00:00 18.7 8 Este 18 Sur 0 -- -- 74
2018-05-08 19:00:00 20.6 4 Este 16 Oeste 0 -- -- 63
2018-05-08 18:00:00 19.4 9 Oeste 17 Oeste 0 -- -- 66
2018-05-08 17:00:00 20 8 Noroeste 11 Noroeste 0 -- -- 61
2018-05-08 16:00:00 19.4 6 Oeste 10 Oeste 0 -- -- 62
2018-05-08 15:00:00 18 9 Noroeste 14 Sudoeste 0.4 -- -- 72
2018-05-08 14:00:00 20 5 Oeste 14 Sudoeste 0 -- -- 64
2018-05-08 13:00:00 19.5 5 Sur 10 Sudoeste 0 -- -- 65
2018-05-08 12:00:00 17.9 5 Sudoeste 9 Oeste 0 -- -- 71
2018-05-08 11:00:00 17.4 6 Este 11 Este 0 -- -- 70
2018-05-08 10:00:00 16.3 4 Sudeste 8 Este 0 -- -- 73
2018-05-08 09:00:00 14.3 5 Este 14 Norte 0 -- -- 79
2018-05-08 08:00:00 12.6 4 Sudeste 22 Este 0 -- -- 86
2018-05-08 07:00:00 11.4 19 Nordeste 24 Este 0 -- -- 88
2018-05-08 06:00:00 11.7 3 Sudeste 17 Sudeste 0 -- -- 88
2018-05-08 05:00:00 11.8 6 Nordeste 15 Este 0.2 -- -- 87
2018-05-08 04:00:00 11.9 7 Nordeste 26 Norte 1 -- -- 89
2018-05-08 03:00:00 12.9 9 Este 28 Norte 0 -- -- 86
2018-05-08 02:00:00 13.4 10 Norte 19 Norte 0 -- -- 83
2018-05-08 01:00:00 13.1 8 Norte 21 Norte 0 -- -- 89
2018-05-08 00:00:00 13.2 4 Oeste 23 Noroeste 0 -- -- 92
2018-05-07 23:00:00 13.1 17 Noroeste 29 Noroeste 0.8 -- -- 92
2018-05-07 22:00:00 13.9 16 Noroeste 27 Norte 2.6 -- -- 91
2018-05-07 21:00:00 15.3 8 Norte 15 Noroeste 1 -- -- 84
2018-05-07 20:00:00 17.4 4 Norte 8 Norte 0 -- -- 80
2018-05-07 19:00:00 17.7 5 Sudeste 14 Sudeste 0.2 -- -- 75
2018-05-07 18:00:00 17.3 6 Sudeste 27 Noroeste 0.2 -- -- 76
2018-05-07 17:00:00 15.4 16 Noroeste 21 Noroeste 0.6 -- -- 83
2018-05-07 16:00:00 18 7 Sur 35 Sur 0 -- -- 72
2018-05-07 15:00:00 19.6 5 Oeste 21 Oeste 0 -- -- 66
2018-05-07 14:00:00 21.1 12 Oeste 22 Oeste 0 -- -- 62
2018-05-07 13:00:00 20.4 9 Sudoeste 18 Sudoeste 0 -- -- 64
2018-05-07 12:00:00 18.4 8 Noroeste 15 Oeste 0 -- -- 69
2018-05-07 11:00:00 17.7 10 Oeste 15 Oeste 0 -- -- 73
2018-05-07 10:00:00 16.2 0 Calma 6 Sur 0 -- -- 81
2018-05-07 09:00:00 14.2 0 Calma 5 Norte 0 -- -- 89
2018-05-07 08:00:00 12.4 4 Norte 8 Norte 0 -- -- 93
2018-05-07 07:00:00 11.9 6 Norte 9 Norte 0 -- -- 94
2018-05-07 06:00:00 13 9 Oeste 14 Noroeste 0 -- -- 91
2018-05-07 05:00:00 12.7 0 Calma 9 Norte 0 -- -- 92
2018-05-07 04:00:00 12.2 6 Norte 10 Norte 0 -- -- 93
2018-05-07 03:00:00 12.6 4 Sudeste 10 Norte 0 -- -- 91
2018-05-07 02:00:00 13.1 5 Norte 8 Norte 0 -- -- 91
2018-05-07 01:00:00 13.6 2 Norte 9 Norte 0 -- -- 90
2018-05-07 00:00:00 13.7 3 Norte 8 Norte 0 -- -- 89
2018-05-06 23:00:00 14.3 3 Norte 9 Norte 0 -- -- 87
2018-05-06 22:00:00 15.3 5 Norte 9 Este 0 -- -- 83
2018-05-06 21:00:00 16.2 8 Este 12 Este 0 -- -- 79
2018-05-06 20:00:00 18.6 0 Calma 9 Sudeste 0 -- -- 67
2018-05-06 19:00:00 19.1 6 Este 17 Sur 0 -- -- 64
2018-05-06 18:00:00 21 4 Sudeste 12 Sur 0 -- -- 60
2018-05-06 17:00:00 19.4 5 Sudoeste 14 Sudoeste 0 -- -- 65
2018-05-06 16:00:00 17.7 6 Sudoeste 19 Sudeste 1 -- -- 75
2018-05-06 15:00:00 20.1 7 Sudoeste 19 Sudoeste 0 -- -- 56
2018-05-06 14:00:00 19.2 11 Oeste 17 Sur 0 -- -- 59
2018-05-06 13:00:00 19.4 8 Sur 19 Sur 0 -- -- 62
2018-05-06 12:00:00 20.2 5 Sur 13 Sudeste 0 -- -- 48
2018-05-06 11:00:00 18.9 9 Sudeste 16 Este 0 -- -- 57
2018-05-06 10:00:00 16.2 4 Nordeste 8 Noroeste 0 -- -- 70
2018-05-06 09:00:00 13.4 4 Sudoeste 8 Norte 0 -- -- 81
2018-05-06 08:00:00 9.9 6 Norte 12 Norte 0 -- -- 92
2018-05-06 07:00:00 8 8 Norte 12 Norte 0 -- -- 93
2018-05-06 06:00:00 8.7 8 Norte 13 Norte 0 -- -- 93
2018-05-06 05:00:00 8.7 9 Norte 13 Norte 0 -- -- 93
2018-05-06 04:00:00 8.9 11 Norte 14 Norte 0 -- -- 93
2018-05-06 03:00:00 8.7 8 Norte 12 Norte 0 -- -- 91
2018-05-06 02:00:00 9.5 4 Norte 11 Norte 0 -- -- 89
2018-05-06 01:00:00 10.3 4 Norte 13 Norte 0 -- -- 88
2018-05-06 00:00:00 11.2 11 Norte 15 Norte 0 -- -- 86
2018-05-05 23:00:00 12.9 0 Calma 15 Sudeste 0 -- -- 82
2018-05-05 22:00:00 13.1 6 Este 9 Nordeste 0 -- -- 79
2018-05-05 21:00:00 13.8 3 Este 13 Sudeste 0 -- -- 76
2018-05-05 20:00:00 14.9 6 Sudeste 13 Sudeste 0 -- -- 71
2018-05-05 19:00:00 15.8 7 Sudeste 12 Este 0 -- -- 72
2018-05-05 18:00:00 16.3 4 Sudeste 9 Sudeste 0 -- -- 71
2018-05-05 17:00:00 15.5 3 Norte 15 Este 0 -- -- 78
2018-05-05 16:00:00 13.9 8 Sudeste 15 Este 0.2 -- -- 86
2018-05-05 15:00:00 13.1 12 Sudeste 28 Sudeste 0.6 -- -- 85
2018-05-05 14:00:00 16.5 15 Sur 24 Sur 0 -- -- 63
2018-05-05 13:00:00 17.8 10 Oeste 21 Oeste 0 -- -- 58
2018-05-05 12:00:00 17.2 14 Oeste 21 Oeste 0 -- -- 54
2018-05-05 11:00:00 16.1 8 Oeste 14 Noroeste 0 -- -- 58
2018-05-05 10:00:00 14.2 8 Oeste 12 Oeste 0 -- -- 62
2018-05-05 09:00:00 12 0 Calma 6 Sudeste 0 -- -- 70
2018-05-05 08:00:00 8.8 3 Norte 12 Norte 0 -- -- 82
2018-05-05 07:00:00 7.2 0 Calma 9 Norte 0 -- -- 84
2018-05-05 06:00:00 7.5 4 Nordeste 13 Norte 0 -- -- 82
2018-05-05 05:00:00 8.1 9 Norte 14 Norte 0 -- -- 80
2018-05-05 04:00:00 8.4 5 Norte 14 Norte 0 -- -- 78
2018-05-05 03:00:00 8.8 8 Norte 13 Norte 0 -- -- 79
2018-05-05 02:00:00 8.8 8 Norte 16 Norte 0 -- -- 78
2018-05-05 01:00:00 9.3 11 Norte 17 Norte 0 -- -- 78
2018-05-05 00:00:00 10 13 Norte 17 Norte 0 -- -- 79
2018-05-04 23:00:00 10.9 2 Nordeste 10 Norte 0 -- -- 80
2018-05-04 22:00:00 11.4 5 Norte 11 Norte 0 -- -- 77
2018-05-04 21:00:00 15.7 2 Oeste 12 Oeste 0 -- -- 61
2018-05-04 20:00:00 17.8 6 Oeste 18 Oeste 0 -- -- 53
2018-05-04 19:00:00 18.2 8 Oeste 15 Sudoeste 0 -- -- 52
2018-05-04 18:00:00 18.2 11 Oeste 18 Oeste 0 -- -- 54
2018-05-04 17:00:00 18 12 Oeste 25 Sudoeste 0 -- -- 52
2018-05-04 16:00:00 19 13 Sudoeste 23 Sudoeste 0 -- -- 49
2018-05-04 15:00:00 18.4 12 Oeste 24 Oeste 0 -- -- 52
2018-05-04 14:00:00 17 12 Oeste 24 Oeste 0 -- -- 52
2018-05-04 13:00:00 16.9 13 Oeste 24 Oeste 0 -- -- 50
2018-05-04 12:00:00 16 15 Oeste 25 Oeste 0 -- -- 47
2018-05-04 11:00:00 14 13 Oeste 21 Oeste 0 -- -- 51
2018-05-04 10:00:00 12 7 Oeste 17 Oeste 0 -- -- 59
2018-05-04 09:00:00 11.2 6 Oeste 9 Oeste 0 -- -- 64
2018-05-04 08:00:00 8.2 5 Oeste 12 Norte 0 -- -- 69
2018-05-04 07:00:00 7.9 10 Noroeste 20 Noroeste 0 -- -- 68
2018-05-04 06:00:00 7.6 7 Noroeste 12 Noroeste 0 -- -- 70
2018-05-04 05:00:00 6.7 8 Noroeste 14 Noroeste 0 -- -- 74
2018-05-04 04:00:00 7.4 7 Noroeste 12 Noroeste 0 -- -- 73
2018-05-04 03:00:00 7.2 4 Nordeste 14 Norte 0 -- -- 70
2018-05-04 02:00:00 7.1 8 Noroeste 19 Norte 0 -- -- 72
2018-05-04 01:00:00 7 13 Norte 17 Norte 0 -- -- 72
2018-05-04 00:00:00 9.9 9 Noroeste 13 Noroeste 0 -- -- 64
2018-05-03 23:00:00 11.7 5 Noroeste 16 Norte 0 -- -- 56
2018-05-03 22:00:00 12.5 3 Norte 11 Norte 0 -- -- 51
2018-05-03 21:00:00 13.8 3 Nordeste 21 Nordeste 0 -- -- 47
2018-05-03 20:00:00 15.6 13 Norte 28 Norte 0 -- -- 41
2018-05-03 19:00:00 16.8 19 Norte 29 Norte 0 -- -- 38
2018-05-03 18:00:00 16.9 11 Norte 26 Este 0 -- -- 40
2018-05-03 17:00:00 17 11 Norte 30 Noroeste 0 -- -- 39
2018-05-03 16:00:00 17.2 12 Noroeste 30 Noroeste 0 -- -- 41
2018-05-03 15:00:00 17.2 13 Noroeste 30 Noroeste 0 -- -- 43
2018-05-03 14:00:00 16.7 14 Norte 27 Norte 0 -- -- 44
2018-05-03 13:00:00 14.7 17 Oeste 27 Oeste 0 -- -- 55
2018-05-03 12:00:00 12.9 9 Oeste 21 Oeste 0 -- -- 67
2018-05-03 11:00:00 10.9 7 Noroeste 10 Noroeste 0 -- -- 71
2018-05-03 10:00:00 9.8 6 Noroeste 17 Oeste 0 -- -- 76
2018-05-03 09:00:00 7.5 3 Nordeste 14 Noroeste 0 -- -- 81
2018-05-03 08:00:00 7 10 Noroeste 12 Noroeste 0 -- -- 80
2018-05-03 07:00:00 6.2 6 Noroeste 13 Noroeste 0 -- -- 81
2018-05-03 06:00:00 6.5 8 Noroeste 12 Norte 0 -- -- 81
2018-05-03 05:00:00 7.5 6 Norte 10 Oeste 0 -- -- 77
2018-05-03 04:00:00 8 6 Norte 9 Norte 0 -- -- 75
2018-05-03 03:00:00 8.7 6 Norte 10 Norte 0 -- -- 72
2018-05-03 02:00:00 8.3 7 Norte 12 Norte 0 -- -- 76
2018-05-03 01:00:00 8.7 7 Norte 14 Oeste 0 -- -- 74
2018-05-03 00:00:00 10.5 10 Noroeste 15 Oeste 0 -- -- 66
2018-05-02 23:00:00 10.3 11 Oeste 14 Noroeste 0 -- -- 66
2018-05-02 22:00:00 10.6 5 Noroeste 17 Norte 0 -- -- 59
2018-05-02 21:00:00 12.7 6 Norte 13 Noroeste 0 -- -- 61
2018-05-02 20:00:00 13.9 9 Noroeste 28 Oeste 0 -- -- 54
2018-05-02 19:00:00 15.8 14 Oeste 36 Oeste 0 -- -- 49
2018-05-02 18:00:00 16.2 20 Oeste 39 Oeste 0 -- -- 44
2018-05-02 17:00:00 16 21 Oeste 40 Sudoeste 0 -- -- 39
2018-05-02 16:00:00 15.9 21 Oeste 37 Oeste 0 -- -- 40
2018-05-02 15:00:00 15.7 17 Oeste 37 Oeste 0 -- -- 39
2018-05-02 14:00:00 14.8 19 Oeste 34 Oeste 0 -- -- 46
2018-05-02 13:00:00 13 18 Oeste 32 Oeste 0 -- -- 55
2018-05-02 12:00:00 11.4 12 Oeste 20 Oeste 0 -- -- 50
2018-05-02 11:00:00 9.7 12 Oeste 21 Noroeste 0 -- -- 54
2018-05-02 10:00:00 7.9 9 Oeste 15 Oeste 0 -- -- 73
2018-05-02 09:00:00 5.9 8 Oeste 12 Oeste 0 -- -- 80
2018-05-02 08:00:00 2.4 5 Norte 13 Norte 0 -- -- 93
2018-05-02 07:00:00 0.7 9 Norte 12 Norte 0 -- -- 94
2018-05-02 06:00:00 1 8 Norte 13 Norte 0 -- -- 93
2018-05-02 05:00:00 1.5 10 Norte 12 Norte 0 -- -- 92
2018-05-02 04:00:00 1.6 9 Norte 11 Norte 0 -- -- 93
2018-05-02 03:00:00 2.1 7 Norte 12 Norte 0 -- -- 92
2018-05-02 02:00:00 2.6 9 Norte 12 Norte 0 -- -- 92
2018-05-02 01:00:00 3.1 7 Norte 9 Norte 0 -- -- 93
2018-05-02 00:00:00 3.1 4 Norte 8 Norte 0 -- -- 91
2018-05-01 23:00:00 4 4 Norte 12 Norte 0 -- -- 88
2018-05-01 22:00:00 5 7 Norte 10 Noroeste 0 -- -- 89
2018-05-01 21:00:00 7.4 2 Norte 5 Norte 0 -- -- 84
2018-05-01 20:00:00 7.9 2 Sudeste 7 Este 0 -- -- 81
2018-05-01 19:00:00 6.8 6 Este 12 Este 0 -- -- 83
2018-05-01 18:00:00 5.4 9 Este 15 Este 0 -- -- 89
2018-05-01 17:00:00 5.1 11 Sudeste 24 Este 0.8 -- -- 87
2018-05-01 16:00:00 6.6 15 Sudeste 32 Este 0.2 -- -- 79
2018-05-01 15:00:00 10.4 13 Sur 27 Sudoeste 0 -- -- 66
2018-05-01 14:00:00 11.7 13 Oeste 28 Oeste 0 -- -- 57
2018-05-01 13:00:00 11.8 10 Sudoeste 21 Sur 0 -- -- 46
2018-05-01 12:00:00 11.3 9 Oeste 17 Oeste 0 -- -- 54
2018-05-01 11:00:00 10.4 6 Sudoeste 12 Oeste 0 -- -- 53
2018-05-01 10:00:00 9 6 Sudeste 11 Sudeste 0 -- -- 67
2018-05-01 09:00:00 5.6 4 Sudoeste 6 Sudoeste 0 -- -- 84
2018-05-01 08:00:00 3.3 0 Calma 6 Este 0 -- -- 93
2018-05-01 07:00:00 0.9 3 Este 10 Norte 0 -- -- 91
2018-05-01 06:00:00 1.4 4 Norte 11 Nordeste 0 -- -- 90
2018-05-01 05:00:00 0.9 12 Nordeste 14 Nordeste 0 -- -- 93
2018-05-01 04:00:00 2 3 Nordeste 11 Noroeste 0 -- -- 91
2018-05-01 03:00:00 2.5 6 Noroeste 10 Norte 0 -- -- 91
2018-05-01 02:00:00 2.3 9 Norte 12 Norte 0 -- -- 90
2018-05-01 01:00:00 3.3 7 Norte 11 Noroeste 0 -- -- 85
2018-05-01 00:00:00 4.3 8 Noroeste 13 Noroeste 0 -- -- 84
2018-04-30 23:00:00 6.5 6 Noroeste 19 Noroeste 0 -- -- 74
2018-04-30 22:00:00 5.7 9 Noroeste 16 Noroeste 0 -- -- 79
2018-04-30 21:00:00 8.5 9 Noroeste 19 Noroeste 0 -- -- 66
2018-04-30 20:00:00 11 14 Oeste 24 Oeste 0 -- -- 59
2018-04-30 19:00:00 11.8 16 Oeste 27 Oeste 0 -- -- 54
2018-04-30 18:00:00 11.6 11 Sudoeste 24 Oeste 0 -- -- 50
2018-04-30 17:00:00 11.2 11 Noroeste 22 Oeste 0 -- -- 51
2018-04-30 16:00:00 11.5 11 Oeste 26 Oeste 0 -- -- 52
2018-04-30 15:00:00 10.6 14 Sudoeste 23 Sudoeste 0 -- -- 56
2018-04-30 14:00:00 10.2 12 Sudoeste 25 Sudoeste 0 -- -- 61
2018-04-30 13:00:00 8.8 8 Sudoeste 20 Sudeste 0 -- -- 69
2018-04-30 12:00:00 9.1 6 Sudeste 14 Este 0 -- -- 72
2018-04-30 11:00:00 7.1 5 Este 13 Sudeste 0 -- -- 86
2018-04-30 10:00:00 6.3 5 Sudeste 9 Sudeste 0 -- -- 93
2018-04-30 09:00:00 5 5 Oeste 12 Noroeste 0 -- -- 92
2018-04-30 08:00:00 2.7 7 Noroeste 10 Oeste 0 -- -- 98
2018-04-30 07:00:00 4 8 Oeste 10 Oeste 0 -- -- 98
2018-04-30 06:00:00 4.2 10 Noroeste 14 Noroeste 0 -- -- 97
2018-04-30 05:00:00 3.8 7 Noroeste 9 Noroeste 0 -- -- 96
2018-04-30 04:00:00 3.9 5 Oeste 10 Norte 0 -- -- 97
2018-04-30 03:00:00 4.5 3 Nordeste 9 Norte 0 -- -- 95
2018-04-30 02:00:00 5.3 5 Norte 8 Noroeste 0 -- -- 96
2018-04-30 01:00:00 4.9 3 Norte 10 Norte 0.2 -- -- 97
2018-04-30 00:00:00 4.5 7 Norte 10 Norte 0 -- -- 96
2018-04-29 23:00:00 5.3 7 Norte 10 Norte 0 -- -- 95
2018-04-29 22:00:00 6.6 0 Calma 10 Noroeste 0 -- -- 94
2018-04-29 21:00:00 7.2 6 Noroeste 19 Noroeste 0 -- -- 91
2018-04-29 20:00:00 7.9 13 Noroeste 21 Oeste 0 -- -- 91
2018-04-29 19:00:00 7.6 11 Noroeste 21 Noroeste 0 -- -- 93
2018-04-29 18:00:00 7.3 6 Noroeste 27 Noroeste 2 -- -- 94
2018-04-29 17:00:00 8.7 10 Oeste 28 Oeste 0 -- -- 82
2018-04-29 16:00:00 9.1 15 Oeste 36 Oeste 0 -- -- 87
2018-04-29 15:00:00 7.7 5 Oeste 14 Nordeste 0.8 -- -- 89
2018-04-29 14:00:00 5.3 7 Sur 42 Sudoeste 4.4 -- -- 93
2018-04-29 13:00:00 9.8 14 Este 30 Este 0 -- -- 75
2018-04-29 12:00:00 8.3 15 Este 23 Este 0 -- -- 87
2018-04-29 11:00:00 8 11 Este 20 Este 0.6 -- -- 88
2018-04-29 10:00:00 8 3 Oeste 19 Noroeste 0.8 -- -- 89
2018-04-29 09:00:00 8.3 9 Sudoeste 16 Sudoeste 0.6 -- -- 96
2018-04-29 08:00:00 7.4 2 Nordeste 14 Sudeste 0 -- -- 97
2018-04-29 07:00:00 7.3 3 Sudeste 14 Sudeste 1 -- -- 97
2018-04-29 06:00:00 7.7 7 Sudeste 47 Oeste 12.2 -- -- 93
2018-04-29 05:00:00 11.1 19 Sudeste 47 Este 1.2 -- -- 94
2018-04-29 04:00:00 11.4 15 Sudeste 31 Sudeste 0 -- -- 95
2018-04-29 03:00:00 11.9 12 Sur 33 Sudeste 2.4 -- -- 96
2018-04-29 02:00:00 11.7 11 Este 28 Sudeste 0.6 -- -- 95
2018-04-29 01:00:00 12.2 16 Sudeste 27 Sudeste 1.2 -- -- 92
2018-04-29 00:00:00 12.6 18 Sudeste 32 Sudeste 0 -- -- 89
2018-04-28 23:00:00 13.1 18 Sudeste 32 Este 0 -- -- 88
2018-04-28 22:00:00 14.2 22 Sudeste 38 Sudeste 0 -- -- 84
2018-04-28 21:00:00 15 19 Sudeste 34 Sudeste 0 -- -- 75
2018-04-28 20:00:00 16.2 22 Sudeste 44 Este 0 -- -- 71
2018-04-28 19:00:00 17.3 33 Sudeste 50 Este 0 -- -- 65
2018-04-28 18:00:00 18.9 31 Sudeste 47 Este 0 -- -- 57
2018-04-28 17:00:00 18.7 25 Sudeste 35 Este 0 -- -- 54
2018-04-28 16:00:00 18.8 17 Sudeste 26 Sudeste 0 -- -- 59
2018-04-28 15:00:00 18.5 15 Este 25 Este 0 -- -- 62
2018-04-28 14:00:00 17.7 14 Sudeste 26 Sudeste 0 -- -- 65
2018-04-28 13:00:00 16.8 13 Sudeste 23 Sudeste 0 -- -- 75
2018-04-28 12:00:00 14.4 10 Este 16 Sudeste 0 -- -- 85
2018-04-28 11:00:00 12.6 10 Sudeste 20 Sudeste 0 -- -- 92
2018-04-28 10:00:00 12.3 14 Sudeste 23 Sudeste 0 -- -- 92
2018-04-28 09:00:00 12.2 11 Sudeste 27 Sudeste 0 -- -- 94
2018-04-28 08:00:00 11.9 14 Sudeste 26 Este 0 -- -- 94
2018-04-28 07:00:00 12.1 15 Sudeste 22 Sudeste 0 -- -- 89
2018-04-28 06:00:00 12.8 8 Sudeste 13 Sudeste 0 -- -- 82
2018-04-28 05:00:00 12.7 9 Este 16 Este 0 -- -- 82
2018-04-28 04:00:00 13.4 13 Este 25 Este 0 -- -- 79
2018-04-28 03:00:00 13.5 16 Este 26 Este 0 -- -- 79
2018-04-28 02:00:00 13.6 15 Este 21 Nordeste 0 -- -- 83
2018-04-28 01:00:00 13.7 10 Sudeste 17 Sudeste 0 -- -- 83
2018-04-28 00:00:00 13.6 12 Sudeste 18 Sudeste 0 -- -- 86
2018-04-27 23:00:00 14.5 5 Norte 17 Noroeste 0 -- -- 77
2018-04-27 22:00:00 15.5 11 Noroeste 35 Noroeste 0.4 -- -- 81
2018-04-27 21:00:00 18.3 14 Sur 22 Sur 0 -- -- 67
2018-04-27 20:00:00 19 12 Sudoeste 23 Sur 0 -- -- 64
2018-04-27 19:00:00 20.6 12 Sudoeste 22 Sudoeste 0 -- -- 52
2018-04-27 18:00:00 23 16 Sudoeste 31 Oeste 0 -- -- 38
2018-04-27 17:00:00 22.6 15 Oeste 27 Sudoeste 0 -- -- 42
2018-04-27 16:00:00 23.1 14 Sudoeste 28 Sudoeste 0 -- -- 48
2018-04-27 15:00:00 22.1 12 Oeste 18 Oeste 0 -- -- 56
2018-04-27 14:00:00 21.3 10 Oeste 23 Oeste 0 -- -- 58
2018-04-27 13:00:00 20.4 15 Oeste 22 Oeste 0 -- -- 60
2018-04-27 12:00:00 20.4 10 Sudeste 18 Sudeste 0 -- -- 60
2018-04-27 11:00:00 18.9 8 Este 14 Este 0 -- -- 59
2018-04-27 10:00:00 15.8 7 Sudeste 11 Este 0 -- -- 72
2018-04-27 09:00:00 14.8 4 Este 9 Sudeste 0 -- -- 73
2018-04-27 08:00:00 10.5 3 Este 12 Norte 0 -- -- 87
2018-04-27 07:00:00 9.3 9 Norte 12 Norte 0 -- -- 88
2018-04-27 06:00:00 11.1 0 Calma 12 Norte 0 -- -- 79
2018-04-27 05:00:00 10.4 6 Este 18 Norte 0 -- -- 80
2018-04-27 04:00:00 9.3 10 Norte 12 Norte 0 -- -- 85
2018-04-27 03:00:00 9.6 8 Norte 12 Norte 0 -- -- 86
2018-04-27 02:00:00 10.2 10 Norte 13 Norte 0 -- -- 84
2018-04-27 01:00:00 11.3 3 Norte 8 Este 0 -- -- 83
2018-04-27 00:00:00 11.5 4 Norte 8 Este 0 -- -- 83
2018-04-26 23:00:00 12.8 4 Nordeste 9 Este 0 -- -- 79
2018-04-26 22:00:00 15.4 6 Sudeste 10 Este 0 -- -- 69
2018-04-26 21:00:00 17 6 Sudeste 18 Sur 0 -- -- 63
2018-04-26 20:00:00 18.9 12 Sur 23 Sudoeste 0 -- -- 58
2018-04-26 19:00:00 21.3 8 Oeste 17 Noroeste 0 -- -- 54
2018-04-26 18:00:00 21.1 11 Oeste 20 Noroeste 0 -- -- 56
2018-04-26 17:00:00 20.8 11 Oeste 25 Oeste 0 -- -- 56
2018-04-26 16:00:00 20.3 15 Oeste 24 Oeste 0 -- -- 59
2018-04-26 15:00:00 19.9 12 Oeste 23 Sudoeste 0 -- -- 57
2018-04-26 14:00:00 20 11 Sudoeste 19 Sur 0 -- -- 62
2018-04-26 13:00:00 18.5 10 Oeste 18 Oeste 0 -- -- 63
2018-04-26 12:00:00 18.3 7 Oeste 17 Sur 0 -- -- 66
2018-04-26 11:00:00 16.8 10 Sudeste 15 Sudeste 0 -- -- 69
2018-04-26 10:00:00 15.7 4 Sur 8 Sur 0 -- -- 71
2018-04-26 09:00:00 13.7 3 Sudeste 8 Noroeste 0 -- -- 80
2018-04-26 08:00:00 9.8 6 Norte 10 Norte 0 -- -- 90
2018-04-26 07:00:00 10.3 4 Noroeste 13 Norte 0 -- -- 85
2018-04-26 06:00:00 10 9 Norte 12 Norte 0 -- -- 87
2018-04-26 05:00:00 10.4 4 Norte 11 Norte 0 -- -- 84
2018-04-26 04:00:00 11.5 3 Nordeste 11 Norte 0 -- -- 80
2018-04-26 03:00:00 12.5 10 Norte 13 Norte 0 -- -- 80
2018-04-26 02:00:00 15 3 Este 8 Noroeste 0 -- -- 71
2018-04-26 01:00:00 14.8 5 Norte 15 Norte 0 -- -- 71
2018-04-26 00:00:00 14.4 11 Norte 16 Norte 0 -- -- 74
2018-04-25 23:00:00 16 4 Nordeste 12 Este 0 -- -- 65
2018-04-25 22:00:00 17.7 7 Sudeste 22 Este 0 -- -- 56
2018-04-25 21:00:00 19.2 12 Sudeste 28 Sudeste 0 -- -- 51
2018-04-25 20:00:00 21.6 8 Sur 17 Sur 0 -- -- 49
2018-04-25 19:00:00 22.8 10 Sudoeste 18 Sur 0 -- -- 46
2018-04-25 18:00:00 23.2 12 Sudoeste 25 Sudoeste 0 -- -- 47
2018-04-25 17:00:00 24.7 14 Sudoeste 24 Sudoeste 0 -- -- 46
2018-04-25 16:00:00 24.8 14 Sur 28 Sudoeste 0 -- -- 48
2018-04-25 15:00:00 25.6 14 Sudoeste 25 Sur 0 -- -- 47
2018-04-25 14:00:00 24.9 8 Sudoeste 14 Sudoeste 0 -- -- 41
2018-04-25 13:00:00 23.3 6 Oeste 14 Noroeste 0 -- -- 47
2018-04-25 12:00:00 21.8 7 Oeste 12 Oeste 0 -- -- 55
2018-04-25 11:00:00 21.8 7 Sudeste 15 Este 0 -- -- 58
2018-04-25 10:00:00 19.8 11 Este 18 Este 0 -- -- 56
2018-04-25 09:00:00 16.9 4 Este 17 Este 0 -- -- 65
2018-04-25 08:00:00 13.7 10 Este 17 Nordeste 0 -- -- 74
2018-04-25 07:00:00 11.3 2 Nordeste 18 Este 0 -- -- 83
2018-04-25 06:00:00 10.3 9 Norte 14 Norte 0 -- -- 85
2018-04-25 05:00:00 10.7 7 Norte 12 Norte 0 -- -- 84
2018-04-25 04:00:00 10.9 8 Norte 12 Norte 0 -- -- 84
2018-04-25 03:00:00 11.7 5 Norte 13 Norte 0 -- -- 80
2018-04-25 02:00:00 11.4 10 Norte 13 Norte 0 -- -- 80
2018-04-25 01:00:00 11.8 8 Norte 12 Norte 0 -- -- 80
2018-04-25 00:00:00 12.6 5 Norte 14 Norte 0 -- -- 77
2018-04-24 23:00:00 13.1 9 Norte 12 Noroeste 0 -- -- 76
2018-04-24 22:00:00 14.7 8 Noroeste 13 Norte 0 -- -- 70
2018-04-24 21:00:00 18.7 0 Calma 14 Sur 0 -- -- 59
2018-04-24 20:00:00 21.4 10 Sur 17 Sur 0 -- -- 47
2018-04-24 19:00:00 23.1 9 Sur 18 Sudoeste 0 -- -- 45
2018-04-24 18:00:00 23.7 8 Sur 16 Sur 0 -- -- 44
2018-04-24 17:00:00 23.9 8 Sudoeste 19 Oeste 0 -- -- 47
2018-04-24 16:00:00 23.8 7 Sur 16 Este 0 -- -- 40
2018-04-24 15:00:00 23.7 8 Sudeste 18 Este 0 -- -- 41
2018-04-24 14:00:00 22.6 9 Este 18 Sudeste 0 -- -- 47
2018-04-24 13:00:00 21.6 8 Este 22 Sudeste 0 -- -- 53
2018-04-24 12:00:00 20.6 10 Sudeste 20 Sudeste 0 -- -- 55
2018-04-24 11:00:00 19 9 Este 17 Este 0 -- -- 56
2018-04-24 10:00:00 17.1 13 Sudeste 18 Este 0 -- -- 61
2018-04-24 09:00:00 14.9 6 Este 15 Este 0 -- -- 66
2018-04-24 08:00:00 10.7 4 Nordeste 12 Nordeste 0 -- -- 83
2018-04-24 07:00:00 7.9 10 Norte 14 Nordeste 0 -- -- 90
2018-04-24 06:00:00 8.6 7 Norte 11 Norte 0 -- -- 89
2018-04-24 05:00:00 9.3 6 Noroeste 13 Norte 0 -- -- 87
2018-04-24 04:00:00 10.3 6 Norte 16 Nordeste 0 -- -- 84
2018-04-24 03:00:00 10.5 9 Nordeste 15 Nordeste 0 -- -- 84
2018-04-24 02:00:00 10.1 10 Norte 15 Norte 0 -- -- 88
2018-04-24 01:00:00 10 8 Noroeste 11 Norte 0 -- -- 88
2018-04-24 00:00:00 10.3 8 Norte 13 Norte 0 -- -- 88
2018-04-23 23:00:00 12.8 6 Norte 14 Norte 0 -- -- 83
2018-04-23 22:00:00 14.2 6 Nordeste 16 Nordeste 0 -- -- 73
2018-04-23 21:00:00 14.6 7 Este 19 Este 0 -- -- 73
2018-04-23 20:00:00 14.9 11 Oeste 19 Oeste 0 -- -- 81
2018-04-23 19:00:00 14.9 4 Norte 16 Noroeste 0 -- -- 76
2018-04-23 18:00:00 14.8 5 Oeste 22 Oeste 0 -- -- 80
2018-04-23 17:00:00 15 10 Oeste 28 Noroeste 0 -- -- 78
2018-04-23 16:00:00 15.2 14 Noroeste 21 Noroeste 0.2 -- -- 80
2018-04-23 15:00:00 16.1 15 Oeste 28 Norte 0 -- -- 71
2018-04-23 14:00:00 15.3 14 Noroeste 23 Noroeste 0 -- -- 74
2018-04-23 13:00:00 16.1 6 Oeste 11 Sudoeste 0 -- -- 75
2018-04-23 12:00:00 16 5 Oeste 12 Oeste 0 -- -- 75
2018-04-23 11:00:00 15.6 3 Este 8 Sudeste 0 -- -- 71
2018-04-23 10:00:00 15 0 Calma 6 Oeste 0 -- -- 76
2018-04-23 09:00:00 13.8 5 Sudoeste 17 Noroeste 0 -- -- 79
2018-04-23 08:00:00 12 14 Noroeste 20 Oeste 0 -- -- 82
2018-04-23 07:00:00 11.4 5 Sudoeste 12 Norte 0 -- -- 83
2018-04-23 06:00:00 10.6 4 Norte 10 Norte 0 -- -- 84
2018-04-23 05:00:00 10.8 7 Norte 10 Norte 0 -- -- 83
2018-04-23 04:00:00 11.4 4 Sudeste 10 Nordeste 0 -- -- 82
2018-04-23 03:00:00 13 5 Este 14 Nordeste 0 -- -- 76
2018-04-23 02:00:00 14 12 Nordeste 19 Este 0 -- -- 73
2018-04-23 01:00:00 14.2 10 Este 21 Este 0 -- -- 69
2018-04-23 00:00:00 11.9 9 Norte 14 Norte 0 -- -- 75
2018-04-22 23:00:00 12.5 8 Norte 12 Norte 0 -- -- 80
2018-04-22 22:00:00 14.1 6 Norte 10 Oeste 0 -- -- 76
2018-04-22 21:00:00 16.6 5 Sur 11 Sudeste 0 -- -- 64
2018-04-22 20:00:00 18.1 7 Sur 18 Sur 0 -- -- 61
2018-04-22 19:00:00 20.1 12 Sudeste 24 Sudeste 0 -- -- 48
2018-04-22 18:00:00 20.4 9 Sur 20 Sur 0 -- -- 45
2018-04-22 17:00:00 20 9 Sur 22 Sur 0 -- -- 51
2018-04-22 16:00:00 19.4 13 Sur 35 Sudoeste 0 -- -- 52
2018-04-22 15:00:00 22 8 Sudeste 23 Este 0 -- -- 33
2018-04-22 14:00:00 21.9 9 Este 18 Este 0 -- -- 38
2018-04-22 13:00:00 20.9 6 Este 15 Este 0 -- -- 39
2018-04-22 12:00:00 19 10 Este 18 Este 0 -- -- 46
2018-04-22 11:00:00 17.7 5 Sudeste 11 Sudeste 0 -- -- 55
2018-04-22 10:00:00 15.1 5 Este 8 Este 0 -- -- 65
2018-04-22 09:00:00 11.7 2 Sudoeste 8 Este 0 -- -- 77
2018-04-22 08:00:00 10.1 3 Noroeste 8 Nordeste 0 -- -- 81
2018-04-22 07:00:00 10 0 Calma 12 Norte 0 -- -- 76
2018-04-22 06:00:00 9.6 5 Norte 10 Norte 0 -- -- 80
2018-04-22 05:00:00 9.7 8 Norte 13 Norte 0 -- -- 82
2018-04-22 04:00:00 9.6 9 Norte 14 Norte 0 -- -- 79
2018-04-22 03:00:00 9.8 12 Norte 14 Norte 0 -- -- 74
2018-04-22 02:00:00 9.9 10 Norte 12 Norte 0 -- -- 76
2018-04-22 01:00:00 10.7 6 Norte 11 Nordeste 0 -- -- 76
2018-04-22 00:00:00 10.9 8 Norte 10 Norte 0 -- -- 78